createdAt,value
2017-11-15T00:01:27.204Z,57.21
2017-11-15T00:03:53.142Z,56.87
2017-11-15T00:06:19.082Z,57.26
2017-11-15T00:08:45.013Z,57.57
2017-11-15T00:11:10.970Z,57.86
2017-11-15T00:13:36.920Z,58.16
2017-11-15T00:16:02.894Z,58.18
2017-11-15T00:18:28.841Z,58.21
2017-11-15T00:20:54.790Z,58.41
2017-11-15T00:23:20.715Z,58.90
2017-11-15T00:25:46.642Z,59.25
2017-11-15T00:28:12.586Z,59.41
2017-11-15T00:30:38.537Z,59.35
2017-11-15T00:33:04.473Z,59.57
2017-11-15T00:35:30.420Z,59.38
2017-11-15T00:37:56.364Z,59.26
2017-11-15T00:40:22.293Z,59.06
2017-11-15T00:42:48.245Z,58.83
2017-11-15T00:45:14.194Z,58.94
2017-11-15T00:47:40.147Z,59.08
2017-11-15T00:50:06.075Z,59.32
2017-11-15T00:52:32.004Z,59.21
2017-11-15T00:54:57.945Z,59.18
2017-11-15T00:57:23.896Z,59.25
2017-11-15T00:59:49.841Z,59.40
2017-11-15T01:02:15.770Z,59.59
2017-11-15T01:04:41.731Z,58.84
2017-11-15T01:07:07.674Z,58.93
2017-11-15T01:09:33.636Z,59.30
2017-11-15T01:11:59.574Z,59.34
2017-11-15T01:14:25.522Z,60.08
2017-11-15T01:16:51.484Z,59.99
2017-11-15T01:19:17.428Z,59.53
2017-11-15T01:21:43.366Z,59.76
2017-11-15T01:24:09.370Z,59.73
2017-11-15T01:26:35.292Z,60.06
2017-11-15T01:29:01.278Z,60.29
2017-11-15T01:31:27.237Z,60.00
2017-11-15T01:33:53.162Z,60.32
2017-11-15T01:36:19.188Z,60.19
2017-11-15T01:38:45.126Z,60.19
2017-11-15T01:41:11.077Z,60.52
2017-11-15T01:43:37.030Z,60.77
2017-11-15T01:46:02.989Z,60.91
2017-11-15T01:48:28.937Z,60.97
2017-11-15T01:50:54.885Z,61.20
2017-11-15T01:53:20.816Z,61.54
2017-11-15T01:55:46.744Z,61.32
2017-11-15T01:58:12.687Z,61.37
2017-11-15T02:03:11.006Z,61.59
2017-11-15T02:05:36.959Z,62.34
2017-11-15T02:08:02.892Z,61.96
2017-11-15T02:10:28.819Z,62.00
2017-11-15T02:12:54.767Z,62.38
2017-11-15T02:15:20.706Z,62.44
2017-11-15T02:17:46.646Z,62.39
2017-11-15T02:20:12.583Z,62.71
2017-11-15T02:22:38.539Z,62.33
2017-11-15T02:25:04.474Z,62.61
2017-11-15T02:27:30.422Z,62.52
2017-11-15T02:29:56.365Z,62.41
2017-11-15T02:32:22.305Z,62.29
2017-11-15T02:34:48.268Z,62.43
2017-11-15T02:37:14.219Z,62.39
2017-11-15T02:39:40.166Z,62.50
2017-11-15T02:42:06.112Z,62.89
2017-11-15T02:44:32.040Z,62.53
2017-11-15T02:46:58.086Z,62.66
2017-11-15T02:49:24.022Z,62.51
2017-11-15T02:51:49.961Z,62.37
2017-11-15T02:54:15.924Z,62.13
2017-11-15T02:56:41.853Z,62.31
2017-11-15T02:59:07.793Z,62.68
2017-11-15T03:01:33.728Z,62.36
2017-11-15T03:03:59.669Z,63.43
2017-11-15T03:06:25.651Z,62.86
2017-11-15T03:08:51.578Z,63.26
2017-11-15T03:11:17.673Z,63.31
2017-11-15T03:13:43.634Z,63.51
2017-11-15T03:16:09.574Z,63.38
2017-11-15T03:18:35.519Z,63.17
2017-11-15T03:21:01.461Z,63.32
2017-11-15T03:23:27.402Z,62.72
2017-11-15T03:25:53.337Z,63.52
2017-11-15T03:28:19.265Z,63.24
2017-11-15T03:30:45.212Z,63.27
2017-11-15T03:33:11.159Z,63.77
2017-11-15T03:35:37.115Z,63.50
2017-11-15T03:38:03.058Z,63.48
2017-11-15T03:40:29.003Z,63.52
2017-11-15T03:42:54.992Z,63.92
2017-11-15T03:45:20.954Z,63.27
2017-11-15T03:47:46.920Z,63.71
2017-11-15T03:50:12.874Z,63.50
2017-11-15T03:52:38.809Z,63.39
2017-11-15T03:55:04.760Z,63.48
2017-11-15T03:57:30.691Z,63.88
2017-11-15T03:59:56.660Z,63.41
2017-11-15T04:02:22.595Z,63.13
2017-11-15T04:04:48.543Z,63.23
2017-11-15T04:07:14.491Z,63.82
2017-11-15T04:09:40.455Z,63.47
2017-11-15T04:12:06.414Z,63.83
2017-11-15T04:14:32.356Z,63.72
2017-11-15T04:16:58.290Z,63.70
2017-11-15T04:19:24.245Z,64.03
2017-11-15T04:21:50.180Z,64.32
2017-11-15T04:24:16.173Z,64.42
2017-11-15T04:26:42.129Z,64.01
2017-11-15T04:29:08.121Z,63.98
2017-11-15T04:31:34.057Z,64.10
2017-11-15T04:34:00.019Z,64.18
2017-11-15T04:36:25.947Z,64.60
2017-11-15T04:38:54.027Z,64.84
2017-11-15T04:41:19.981Z,64.72
2017-11-15T04:43:45.947Z,64.82
2017-11-15T04:46:11.924Z,64.81
2017-11-15T04:48:37.888Z,64.65
2017-11-15T04:51:03.834Z,64.86
2017-11-15T04:53:29.768Z,64.37
2017-11-15T04:55:55.707Z,65.20
2017-11-15T04:58:21.739Z,64.86
2017-11-15T05:00:47.674Z,64.93
2017-11-15T05:03:13.615Z,64.85
2017-11-15T05:05:39.572Z,65.53
2017-11-15T05:08:05.559Z,65.43
2017-11-15T05:10:31.504Z,65.35
2017-11-15T05:12:57.457Z,65.27
2017-11-15T05:15:23.410Z,65.65
2017-11-15T05:17:49.359Z,65.41
2017-11-15T05:20:15.275Z,65.29
2017-11-15T05:22:41.240Z,65.60
2017-11-15T05:25:07.183Z,65.28
2017-11-15T05:27:33.140Z,65.30
2017-11-15T05:29:59.095Z,64.77
2017-11-15T05:32:25.032Z,64.66
2017-11-15T05:34:51.000Z,64.86
2017-11-15T05:37:16.967Z,64.99
2017-11-15T05:39:42.917Z,64.82
2017-11-15T05:42:08.881Z,65.21
2017-11-15T05:44:35.375Z,65.62
2017-11-15T05:47:01.343Z,65.21
2017-11-15T05:49:27.277Z,65.05
2017-11-15T05:51:53.216Z,65.09
2017-11-15T05:54:19.173Z,65.11
2017-11-15T05:56:45.121Z,65.07
2017-11-15T05:59:11.107Z,65.15
2017-11-15T06:01:37.060Z,65.15
2017-11-15T06:04:03.027Z,65.24
2017-11-15T06:06:28.982Z,65.36
2017-11-15T06:08:54.963Z,65.25
2017-11-15T06:11:21.012Z,65.21
2017-11-15T06:13:46.988Z,65.16
2017-11-15T06:16:12.883Z,65.36
2017-11-15T06:18:38.858Z,65.58
2017-11-15T06:21:04.822Z,65.72
2017-11-15T06:23:30.764Z,65.65
2017-11-15T06:25:56.856Z,66.05
2017-11-15T06:28:22.832Z,65.60
2017-11-15T06:30:48.804Z,66.11
2017-11-15T06:33:14.671Z,66.08
2017-11-15T06:35:40.615Z,65.80
2017-11-15T06:38:06.531Z,65.69
2017-11-15T06:40:32.486Z,66.03
2017-11-15T06:42:58.423Z,66.62
2017-11-15T06:45:24.405Z,66.28
2017-11-15T06:47:50.501Z,66.54
2017-11-15T06:50:16.459Z,66.41
2017-11-15T06:52:42.409Z,66.09
2017-11-15T06:55:08.392Z,65.91
2017-11-15T06:57:34.319Z,66.26
2017-11-15T07:00:00.248Z,65.98
2017-11-15T07:02:26.177Z,65.81
2017-11-15T07:04:52.135Z,66.12
2017-11-15T07:07:18.067Z,66.04
2017-11-15T07:09:44.010Z,66.23
2017-11-15T07:12:09.982Z,66.28
2017-11-15T07:14:35.957Z,66.10
2017-11-15T07:17:01.929Z,66.34
2017-11-15T07:19:27.957Z,66.34
2017-11-15T07:21:53.934Z,66.22
2017-11-15T07:24:19.877Z,66.25
2017-11-15T07:26:45.817Z,66.27
2017-11-15T07:29:11.753Z,66.46
2017-11-15T07:31:37.695Z,66.23
2017-11-15T07:34:03.647Z,66.52
2017-11-15T07:36:29.647Z,66.50
2017-11-15T07:38:55.602Z,66.35
2017-11-15T07:41:21.527Z,66.17
2017-11-15T07:43:47.476Z,66.10
2017-11-15T07:46:13.488Z,66.11
2017-11-15T07:48:39.451Z,66.33
2017-11-15T07:51:05.377Z,66.33
2017-11-15T07:53:31.316Z,66.06
2017-11-15T07:55:57.241Z,66.14
2017-11-15T07:58:23.227Z,66.37
2017-11-15T08:00:49.166Z,66.14
2017-11-15T08:03:15.200Z,66.68
2017-11-15T08:05:41.137Z,66.84
2017-11-15T08:08:07.065Z,66.14
2017-11-15T08:10:33.020Z,66.07
2017-11-15T08:12:58.964Z,65.87
2017-11-15T08:15:24.908Z,66.15
2017-11-15T08:17:50.852Z,65.98
2017-11-15T08:20:16.822Z,66.14
2017-11-15T08:22:42.794Z,65.98
2017-11-15T08:25:08.753Z,67.95
2017-11-15T08:27:34.698Z,68.87
2017-11-15T08:30:00.727Z,68.52
2017-11-15T08:32:26.670Z,69.10
2017-11-15T08:34:52.650Z,68.89
2017-11-15T08:37:18.653Z,68.32
2017-11-15T08:39:44.714Z,67.92
2017-11-15T08:42:10.720Z,67.26
2017-11-15T08:44:36.652Z,67.24
2017-11-15T08:47:02.585Z,67.07
2017-11-15T08:49:28.542Z,66.73
2017-11-15T08:51:54.475Z,66.58
2017-11-15T08:54:20.438Z,66.14
2017-11-15T08:56:46.383Z,65.90
2017-11-15T08:59:12.339Z,65.98
2017-11-15T09:01:38.276Z,65.76
2017-11-15T09:04:04.324Z,65.69
2017-11-15T09:06:30.255Z,65.61
2017-11-15T09:08:56.196Z,65.66
2017-11-15T09:11:22.136Z,65.31
2017-11-15T09:13:48.093Z,65.36
2017-11-15T09:16:14.035Z,65.49
2017-11-15T09:18:39.983Z,64.73
2017-11-15T09:21:05.936Z,64.41
2017-11-15T09:23:31.859Z,64.81
2017-11-15T09:25:57.788Z,64.57
2017-11-15T09:28:23.758Z,64.47
2017-11-15T09:30:49.713Z,64.56
2017-11-15T09:33:15.674Z,64.37
2017-11-15T09:35:41.610Z,64.02
2017-11-15T09:38:07.552Z,64.11
2017-11-15T09:40:33.519Z,64.15
2017-11-15T09:42:59.444Z,64.21
2017-11-15T09:45:25.411Z,64.39
2017-11-15T09:47:51.356Z,64.35
2017-11-15T09:50:17.325Z,64.11
2017-11-15T09:52:43.296Z,64.14
2017-11-15T09:55:09.242Z,64.65
2017-11-15T09:57:35.193Z,64.27
2017-11-15T10:00:01.130Z,63.87
2017-11-15T10:02:28.280Z,63.85
2017-11-15T10:04:54.224Z,63.91
2017-11-15T10:07:20.162Z,63.98
2017-11-15T10:09:46.132Z,64.05
2017-11-15T10:12:12.076Z,63.57
2017-11-15T10:14:38.016Z,63.44
2017-11-15T10:17:04.525Z,63.62
2017-11-15T10:19:30.657Z,63.74
2017-11-15T10:21:56.592Z,63.53
2017-11-15T10:24:22.516Z,63.43
2017-11-15T10:26:48.451Z,63.55
2017-11-15T10:29:14.402Z,63.69
2017-11-15T10:31:40.334Z,63.36
2017-11-15T10:34:06.259Z,63.16
2017-11-15T10:36:32.197Z,63.08
2017-11-15T10:38:58.136Z,63.28
2017-11-15T10:41:24.077Z,63.17
2017-11-15T10:43:50.022Z,63.17
2017-11-15T10:46:15.973Z,62.68
2017-11-15T10:48:41.924Z,62.95
2017-11-15T10:51:07.911Z,62.77
2017-11-15T10:53:33.882Z,63.19
2017-11-15T10:55:59.842Z,62.92
2017-11-15T10:58:25.777Z,63.20
2017-11-15T11:00:51.726Z,63.28
2017-11-15T11:03:17.694Z,63.30
2017-11-15T11:05:43.626Z,63.36
2017-11-15T11:08:09.637Z,63.68
2017-11-15T11:10:35.580Z,63.39
2017-11-15T11:13:01.530Z,63.20
2017-11-15T11:15:27.489Z,63.12
2017-11-15T11:17:53.427Z,63.12
2017-11-15T11:20:19.375Z,63.33
2017-11-15T11:22:45.312Z,63.29
2017-11-15T11:25:11.268Z,63.09
2017-11-15T11:27:37.203Z,63.24
2017-11-15T11:30:03.147Z,63.46
2017-11-15T11:32:29.090Z,63.35
2017-11-15T11:34:55.044Z,63.33
2017-11-15T11:37:20.987Z,63.30
2017-11-15T11:39:47.083Z,63.62
2017-11-15T11:42:13.027Z,62.99
2017-11-15T11:44:38.997Z,62.96
2017-11-15T11:47:04.955Z,63.13
2017-11-15T11:49:30.896Z,63.49
2017-11-15T11:51:56.850Z,63.58
2017-11-15T11:54:22.815Z,63.12
2017-11-15T11:56:48.760Z,63.20
2017-11-15T11:59:14.688Z,63.34
2017-11-15T12:01:40.632Z,62.76
2017-11-15T12:04:06.584Z,63.01
2017-11-15T12:06:32.515Z,63.35
2017-11-15T12:08:58.446Z,63.45
2017-11-15T12:11:24.392Z,63.43
2017-11-15T12:13:50.361Z,62.77
2017-11-15T12:16:16.329Z,62.88
2017-11-15T12:18:42.433Z,63.30
2017-11-15T12:21:08.616Z,63.41
2017-11-15T12:23:34.577Z,63.13
2017-11-15T12:26:00.526Z,63.19
2017-11-15T12:28:26.498Z,63.10
2017-11-15T12:30:52.467Z,63.50
2017-11-15T12:33:18.413Z,63.09
2017-11-15T12:35:44.345Z,63.40
2017-11-15T12:38:10.277Z,63.22
2017-11-15T12:40:36.240Z,63.42
2017-11-15T12:43:02.168Z,63.51
2017-11-15T12:45:28.101Z,63.23
2017-11-15T12:47:54.047Z,63.77
2017-11-15T12:50:19.976Z,63.30
2017-11-15T12:52:45.919Z,63.79
2017-11-15T12:55:11.861Z,63.62
2017-11-15T12:57:37.813Z,63.36
2017-11-15T13:00:03.751Z,64.02
2017-11-15T13:02:29.762Z,63.79
2017-11-15T13:04:55.724Z,64.06
2017-11-15T13:07:21.666Z,64.21
2017-11-15T13:09:47.647Z,64.33
2017-11-15T13:12:13.594Z,64.14
2017-11-15T13:14:39.535Z,63.83
2017-11-15T13:17:05.492Z,63.93
2017-11-15T13:19:31.449Z,64.36
2017-11-15T13:21:57.382Z,64.26
2017-11-15T13:24:23.339Z,63.65
2017-11-15T13:26:49.301Z,63.89
2017-11-15T13:29:15.262Z,63.93
2017-11-15T13:31:41.214Z,63.67
2017-11-15T13:34:07.202Z,63.24
2017-11-15T13:36:33.163Z,63.35
2017-11-15T13:38:59.089Z,63.53
2017-11-15T13:41:25.015Z,63.90
2017-11-15T13:43:50.957Z,63.78
2017-11-15T13:46:16.918Z,63.60
2017-11-15T13:48:42.872Z,63.76
2017-11-15T13:51:08.830Z,63.90
2017-11-15T13:53:34.766Z,63.96
2017-11-15T13:56:00.720Z,64.09
2017-11-15T13:58:26.660Z,64.14
2017-11-15T14:00:52.590Z,63.88
2017-11-15T14:03:18.532Z,64.15
2017-11-15T14:05:44.487Z,64.44
2017-11-15T14:08:10.427Z,64.38
2017-11-15T14:10:36.380Z,64.24
2017-11-15T14:13:02.326Z,64.41
2017-11-15T14:15:28.294Z,64.49
2017-11-15T14:17:54.249Z,64.09
2017-11-15T14:20:20.201Z,63.87
2017-11-15T14:22:46.143Z,64.04
2017-11-15T14:25:12.082Z,64.25
2017-11-15T14:27:38.023Z,64.44
2017-11-15T14:30:03.978Z,64.52
2017-11-15T14:32:29.940Z,64.42
2017-11-15T14:34:55.902Z,64.66
2017-11-15T14:37:21.849Z,64.33
2017-11-15T14:39:47.797Z,64.32
2017-11-15T14:42:13.769Z,64.11
2017-11-15T14:44:39.702Z,64.51
2017-11-15T14:47:05.662Z,64.44
2017-11-15T14:49:31.609Z,64.87
2017-11-15T14:51:57.557Z,64.83
2017-11-15T14:54:23.502Z,64.63
2017-11-15T14:56:49.460Z,64.46
2017-11-15T14:59:15.417Z,64.60
2017-11-15T15:01:41.357Z,64.49
2017-11-15T15:04:07.350Z,63.92
2017-11-15T15:06:33.298Z,64.42
2017-11-15T15:08:59.240Z,64.52
2017-11-15T15:11:25.183Z,64.49
2017-11-15T15:13:51.132Z,64.66
2017-11-15T15:16:17.084Z,64.83
2017-11-15T15:18:43.045Z,64.59
2017-11-15T15:21:08.989Z,64.77
2017-11-15T15:23:34.952Z,64.44
2017-11-15T15:26:00.898Z,64.15
2017-11-15T15:28:26.842Z,64.38
2017-11-15T15:30:52.780Z,64.65
2017-11-15T15:33:18.731Z,64.76
2017-11-15T15:35:44.698Z,64.25
2017-11-15T15:38:10.709Z,64.52
2017-11-15T15:40:36.693Z,64.83
2017-11-15T15:43:02.644Z,65.21
2017-11-15T15:45:28.625Z,65.01
2017-11-15T15:47:54.579Z,64.97
2017-11-15T15:50:20.543Z,65.04
2017-11-15T15:52:46.491Z,65.15
2017-11-15T15:55:12.449Z,65.05
2017-11-15T15:57:39.138Z,65.25
2017-11-15T16:00:05.301Z,64.97
2017-11-15T16:02:31.262Z,65.64
2017-11-15T16:04:57.261Z,65.46
2017-11-15T16:07:23.216Z,65.63
2017-11-15T16:09:49.247Z,65.60
2017-11-15T16:12:15.219Z,65.68
2017-11-15T16:14:41.244Z,65.26
2017-11-15T16:17:07.189Z,65.12
2017-11-15T16:19:33.165Z,65.15
2017-11-15T16:21:59.108Z,65.13
2017-11-15T16:24:25.070Z,64.98
2017-11-15T16:26:51.026Z,65.23
2017-11-15T16:29:16.997Z,65.25
2017-11-15T16:31:42.970Z,65.09
2017-11-15T16:34:08.913Z,65.59
2017-11-15T16:36:34.980Z,65.45
2017-11-15T16:39:00.938Z,65.70
2017-11-15T16:41:26.901Z,65.43
2017-11-15T16:43:52.861Z,65.34
2017-11-15T16:46:18.883Z,65.40
2017-11-15T16:48:44.830Z,65.55
2017-11-15T16:51:10.771Z,65.62
2017-11-15T16:53:36.749Z,65.78
2017-11-15T16:56:02.733Z,65.93
2017-11-15T16:58:28.685Z,65.95
2017-11-15T17:00:54.629Z,66.12
2017-11-15T17:03:20.703Z,65.29
2017-11-15T17:05:46.921Z,65.58
2017-11-15T17:08:12.901Z,65.96
2017-11-15T17:10:38.835Z,66.17
2017-11-15T17:13:04.769Z,66.22
2017-11-15T17:15:30.721Z,66.24
2017-11-15T17:17:56.660Z,66.11
2017-11-15T17:20:22.611Z,65.71
2017-11-15T17:22:48.593Z,65.63
2017-11-15T17:25:14.631Z,65.92
2017-11-15T17:27:40.583Z,65.49
2017-11-15T17:30:06.573Z,65.54
2017-11-15T17:32:32.580Z,65.23
2017-11-15T17:34:58.599Z,65.01
2017-11-15T17:37:24.542Z,65.01
2017-11-15T17:39:50.506Z,65.07
2017-11-15T17:42:16.702Z,65.25
2017-11-15T17:44:42.742Z,65.38
2017-11-15T17:47:08.702Z,65.53
2017-11-15T17:49:34.654Z,65.77
2017-11-15T17:52:00.638Z,65.42
2017-11-15T17:54:26.615Z,65.22
2017-11-15T17:56:52.560Z,65.46
2017-11-15T17:59:18.578Z,65.59
2017-11-15T18:01:44.519Z,65.41
2017-11-15T18:04:10.469Z,65.32
2017-11-15T18:06:36.405Z,65.10
2017-11-15T18:09:03.386Z,65.21
2017-11-15T18:11:29.326Z,65.58
2017-11-15T18:13:55.291Z,66.12
2017-11-15T18:16:21.264Z,66.43
2017-11-15T18:18:47.216Z,66.57
2017-11-15T18:21:13.169Z,66.45
2017-11-15T18:23:39.159Z,66.21
2017-11-15T18:26:05.100Z,66.11
2017-11-15T18:28:31.048Z,66.63
2017-11-15T18:30:57.018Z,66.26
2017-11-15T18:33:22.962Z,66.18
2017-11-15T18:35:48.905Z,66.04
2017-11-15T18:38:14.842Z,66.13
2017-11-15T18:40:40.798Z,65.93
2017-11-15T18:43:06.795Z,65.71
2017-11-15T18:45:32.780Z,65.76
2017-11-15T18:47:58.716Z,66.08
2017-11-15T18:50:24.643Z,65.95
2017-11-15T18:52:50.601Z,66.07
2017-11-15T18:55:16.560Z,65.90
2017-11-15T18:57:42.511Z,65.97
2017-11-15T19:00:08.464Z,65.94
2017-11-15T19:02:34.579Z,65.95
2017-11-15T19:05:00.530Z,65.65
2017-11-15T19:07:26.495Z,65.83
2017-11-15T19:09:52.437Z,66.07
2017-11-15T19:12:18.374Z,65.91
2017-11-15T19:14:44.316Z,65.79
2017-11-15T19:17:10.275Z,65.89
2017-11-15T19:19:36.220Z,65.92
2017-11-15T19:22:02.157Z,65.67
2017-11-15T19:24:28.101Z,65.81
2017-11-15T19:26:54.075Z,65.69
2017-11-15T19:29:20.016Z,65.94
2017-11-15T19:31:45.984Z,66.12
2017-11-15T19:34:11.922Z,66.26
2017-11-15T19:36:37.964Z,65.93
2017-11-15T19:39:04.068Z,66.26
2017-11-15T19:41:30.013Z,66.33
2017-11-15T19:43:56.305Z,65.97
2017-11-15T19:46:22.263Z,66.21
2017-11-15T19:48:48.222Z,65.97
2017-11-15T19:51:14.160Z,66.06
2017-11-15T19:53:40.184Z,66.02
2017-11-15T19:56:06.144Z,66.27
2017-11-15T19:58:32.074Z,66.45
2017-11-15T20:00:58.112Z,66.57
2017-11-15T20:03:24.059Z,66.59
2017-11-15T20:05:50.402Z,66.62
2017-11-15T20:08:16.391Z,67.02
2017-11-15T20:10:42.414Z,67.09
2017-11-15T20:13:08.364Z,66.92
2017-11-15T20:15:34.321Z,66.92
2017-11-15T20:18:00.266Z,66.91
2017-11-15T20:20:26.350Z,67.42
2017-11-15T20:22:52.598Z,67.60
2017-11-15T20:25:19.638Z,67.20
2017-11-15T20:27:45.651Z,67.36
2017-11-15T20:30:11.625Z,67.69
2017-11-15T20:32:37.580Z,67.69
2017-11-15T20:35:03.522Z,67.71
2017-11-15T20:37:29.465Z,67.58
2017-11-15T20:39:55.418Z,68.20
2017-11-15T20:42:21.350Z,67.89
2017-11-15T20:44:48.030Z,67.46
2017-11-15T20:47:14.050Z,67.70
2017-11-15T20:49:40.024Z,67.93
2017-11-15T20:52:06.017Z,67.74
2017-11-15T20:54:32.032Z,67.34
2017-11-15T20:56:58.144Z,67.74
2017-11-15T20:59:24.135Z,67.37
2017-11-15T21:01:50.080Z,67.59
2017-11-15T21:04:16.063Z,67.98
2017-11-15T21:06:42.028Z,68.04
2017-11-15T21:09:08.248Z,68.03
2017-11-15T21:11:34.220Z,68.18
2017-11-15T21:14:00.200Z,68.33
2017-11-15T21:16:26.164Z,68.23
2017-11-15T21:18:52.186Z,69.09
2017-11-15T21:21:18.192Z,68.36
2017-11-15T21:23:44.576Z,68.47
2017-11-15T21:26:10.608Z,68.15
2017-11-15T21:28:36.644Z,68.34
2017-11-15T21:31:02.606Z,67.98
2017-11-15T21:33:28.579Z,68.23
2017-11-15T21:35:54.608Z,68.33
2017-11-15T21:38:20.613Z,68.37
2017-11-15T21:40:46.673Z,68.81
2017-11-15T21:43:12.942Z,68.05
2017-11-15T21:45:38.903Z,67.85
2017-11-15T21:48:04.910Z,68.20
2017-11-15T21:50:30.861Z,68.03
2017-11-15T21:52:56.846Z,67.71
2017-11-15T21:55:22.808Z,67.96
2017-11-15T21:57:48.765Z,68.19
2017-11-15T22:00:14.754Z,68.05
2017-11-15T22:02:40.714Z,68.39
2017-11-15T22:05:06.678Z,68.53
2017-11-15T22:07:32.675Z,68.43
2017-11-15T22:09:58.660Z,68.38
2017-11-15T22:12:24.643Z,68.48
2017-11-15T22:14:50.671Z,67.92
2017-11-15T22:17:16.697Z,68.69
2017-11-15T22:19:42.719Z,68.83
2017-11-15T22:22:08.695Z,68.54
2017-11-15T22:24:34.697Z,68.68
2017-11-15T22:27:00.655Z,68.86
2017-11-15T22:29:26.616Z,68.53
2017-11-15T22:31:52.565Z,68.71
2017-11-15T22:34:18.533Z,68.46
2017-11-15T22:36:44.566Z,67.83
2017-11-15T22:39:10.539Z,68.80
2017-11-15T22:41:36.496Z,68.35
2017-11-15T22:44:02.480Z,68.67
2017-11-15T22:46:28.447Z,68.42
2017-11-15T22:48:54.429Z,69.00
2017-11-15T22:51:20.396Z,68.15
2017-11-15T22:53:46.373Z,68.26
2017-11-15T22:56:12.324Z,67.74
2017-11-15T22:58:38.270Z,68.10
2017-11-15T23:01:04.210Z,68.13
2017-11-15T23:03:30.190Z,67.91
2017-11-15T23:05:56.219Z,68.50
2017-11-15T23:08:22.159Z,68.29
2017-11-15T23:10:48.121Z,68.12
2017-11-15T23:13:14.066Z,68.01
2017-11-15T23:15:40.021Z,67.71
2017-11-15T23:18:05.956Z,67.96
2017-11-15T23:20:31.898Z,68.16
2017-11-15T23:22:57.829Z,68.78
2017-11-15T23:25:23.763Z,69.11
2017-11-15T23:27:49.718Z,68.70
2017-11-15T23:30:15.661Z,69.11
2017-11-15T23:32:41.593Z,69.31
2017-11-15T23:35:07.540Z,68.78
2017-11-15T23:37:33.494Z,68.16
2017-11-15T23:39:59.453Z,68.00
2017-11-15T23:42:25.395Z,68.08
2017-11-15T23:44:51.336Z,68.14
2017-11-15T23:47:17.327Z,68.24
2017-11-15T23:49:43.289Z,67.79
2017-11-15T23:52:09.244Z,67.81
2017-11-15T23:54:35.200Z,68.06
2017-11-15T23:57:01.156Z,68.09
2017-11-15T23:59:27.102Z,68.29
